Terminal Aerodrome Forecast
Issued by NWS Burlington, VT

Home | Current Version | Previous Version | Text Only | Print | Product List | Glossary On
Versions: 1 2 3 4 5 6 7 8 9 10 11 12 13 14
000
FTUS41 KBTV 012320
TAFBTV
TAF
KBTV 012320Z 0200/0224 VRB03KT P6SM SKC
     FM021000 16006KT P6SM BKN100 OVC150
     FM021300 17010KT P6SM SCT100
     FM021600 18015G28KT P6SM BKN200=

USA.gov is the U.S. government's official web portal to all federal, state and local government web resources and services.